createdAt,value
2019-05-12T00:00:19.883Z,16.82
2019-05-12T00:02:48.702Z,15.68
2019-05-12T00:05:18.569Z,13.80
2019-05-12T00:07:48.830Z,16.55
2019-05-12T00:10:17.762Z,14.90
2019-05-12T00:12:47.911Z,14.30
2019-05-12T00:15:18.831Z,16.87
2019-05-12T00:17:48.119Z,13.10
2019-05-12T00:20:18.186Z,14.50
2019-05-12T00:22:50.572Z,17.15
2019-05-12T00:25:18.414Z,12.23
2019-05-12T00:27:48.474Z,16.32
2019-05-12T00:30:34.875Z,16.67
2019-05-12T00:33:03.863Z,15.15
2019-05-12T00:35:32.161Z,14.47
2019-05-12T00:38:00.195Z,14.20
2019-05-12T00:40:29.694Z,16.37
2019-05-12T00:42:57.880Z,13.18
2019-05-12T00:45:25.829Z,12.47
2019-05-12T00:47:53.624Z,14.65
2019-05-12T00:50:22.616Z,16.25
2019-05-12T00:52:50.290Z,13.30
2019-05-12T00:55:18.398Z,16.02
2019-05-12T00:57:48.495Z,13.53
2019-05-12T01:00:17.942Z,14.47
2019-05-12T01:02:48.498Z,12.53
2019-05-12T01:05:17.585Z,14.15
2019-05-12T01:07:45.061Z,11.55
2019-05-12T01:10:13.229Z,18.35
2019-05-12T01:12:41.059Z,12.53
2019-05-12T01:15:09.199Z,15.55
2019-05-12T01:17:40.082Z,9.90
2019-05-12T01:20:11.005Z,15.20
2019-05-12T01:22:38.654Z,13.68
2019-05-12T01:25:08.552Z,12.70
2019-05-12T01:27:38.097Z,12.25
2019-05-12T01:30:08.719Z,11.73
2019-05-12T01:32:38.209Z,10.50
2019-05-12T01:35:08.145Z,9.23
2019-05-12T01:37:38.313Z,12.78
2019-05-12T01:40:08.845Z,12.63
2019-05-12T01:42:38.244Z,9.58
2019-05-12T01:45:08.994Z,9.03
2019-05-12T01:47:38.224Z,8.68
2019-05-12T01:50:09.103Z,12.45
2019-05-12T01:52:38.576Z,10.82
2019-05-12T01:55:09.634Z,14.33
2019-05-12T01:57:38.537Z,11.88
2019-05-12T02:00:08.993Z,11.97
2019-05-12T02:02:38.622Z,9.00
2019-05-12T02:05:09.421Z,10.23
2019-05-12T02:07:44.343Z,11.05
2019-05-12T02:10:13.614Z,9.25
2019-05-12T02:12:41.302Z,9.70
2019-05-12T02:15:09.263Z,10.35
2019-05-12T02:17:39.419Z,9.80
2019-05-12T02:20:08.250Z,10.85
2019-05-12T02:22:38.860Z,10.20
2019-05-12T02:25:09.285Z,13.05
2019-05-12T02:27:43.188Z,11.50
2019-05-12T02:30:13.739Z,10.10
2019-05-12T02:32:52.142Z,11.88
2019-05-12T02:35:11.465Z,6.62
2019-05-12T02:37:39.296Z,7.50
2019-05-12T02:40:08.155Z,12.58
2019-05-12T02:42:35.877Z,12.65
2019-05-12T02:45:05.591Z,10.28
2019-05-12T02:47:34.717Z,7.75
2019-05-12T02:50:05.282Z,7.47
2019-05-12T02:52:34.776Z,12.75
2019-05-12T02:55:06.114Z,10.25
2019-05-12T02:57:34.870Z,10.68
2019-05-12T03:00:05.240Z,10.45
2019-05-12T03:02:35.074Z,8.73
2019-05-12T03:05:05.616Z,8.60
2019-05-12T03:07:34.750Z,10.43
2019-05-12T03:10:05.707Z,7.40
2019-05-12T03:12:34.407Z,9.05
2019-05-12T03:15:05.355Z,10.60
2019-05-12T03:17:35.477Z,11.90
2019-05-12T03:20:05.082Z,9.08
2019-05-12T03:22:35.372Z,9.38
2019-05-12T03:25:15.607Z,7.00
2019-05-12T03:27:35.075Z,8.58
2019-05-12T03:30:06.276Z,10.98
2019-05-12T03:32:37.771Z,8.03
2019-05-12T03:35:08.904Z,9.60
2019-05-12T03:37:35.367Z,11.63
2019-05-12T03:40:05.483Z,10.03
2019-05-12T03:42:35.432Z,9.35
2019-05-12T03:45:04.671Z,8.28
2019-05-12T03:47:35.632Z,11.22
2019-05-12T03:50:04.527Z,11.33
2019-05-12T03:52:34.828Z,9.88
2019-05-12T03:55:05.388Z,7.80
2019-05-12T03:57:34.621Z,9.25
2019-05-12T04:00:04.960Z,8.23
2019-05-12T04:02:33.900Z,8.70
2019-05-12T04:05:04.934Z,9.38
2019-05-12T04:07:30.712Z,7.22
2019-05-12T04:09:58.389Z,6.62
2019-05-12T04:12:26.016Z,7.95
2019-05-12T04:14:55.235Z,10.00
2019-05-12T04:17:24.486Z,10.65
2019-05-12T04:19:54.905Z,12.70
2019-05-12T04:22:24.810Z,8.03
2019-05-12T04:24:54.889Z,12.20
2019-05-12T04:27:25.114Z,7.35
2019-05-12T04:29:54.719Z,9.43
2019-05-12T04:32:24.994Z,8.78
2019-05-12T04:34:54.837Z,9.68
2019-05-12T04:37:24.775Z,10.40
2019-05-12T04:39:51.183Z,8.38
2019-05-12T04:42:18.864Z,13.93
2019-05-12T04:44:46.497Z,12.07
2019-05-12T04:47:15.349Z,12.63
2019-05-12T04:49:45.157Z,11.75
2019-05-12T04:52:15.341Z,11.45
2019-05-12T04:54:44.582Z,12.00
2019-05-12T04:57:14.932Z,9.43
2019-05-12T04:59:45.097Z,12.05
2019-05-12T05:02:15.045Z,11.28
2019-05-12T05:04:44.079Z,11.73
2019-05-12T05:07:14.818Z,10.03
2019-05-12T05:09:44.099Z,9.03
2019-05-12T05:12:13.744Z,11.75
2019-05-12T05:14:40.604Z,11.88
2019-05-12T05:17:08.164Z,11.48
2019-05-12T05:19:39.359Z,13.75
2019-05-12T05:22:06.977Z,9.58
2019-05-12T05:24:34.731Z,8.60
2019-05-12T05:27:04.417Z,8.90
2019-05-12T05:29:33.289Z,8.95
2019-05-12T05:32:03.521Z,10.93
2019-05-12T05:34:31.423Z,7.92
2019-05-12T05:37:01.489Z,11.45
2019-05-12T05:39:28.728Z,11.40
2019-05-12T05:41:56.464Z,9.65
2019-05-12T05:44:24.216Z,9.00
2019-05-12T05:46:54.513Z,12.30
2019-05-12T05:49:23.695Z,8.68
2019-05-12T05:51:55.092Z,10.32
2019-05-12T05:54:22.659Z,10.93
2019-05-12T05:56:58.234Z,8.98
2019-05-12T05:59:21.884Z,8.65
2019-05-12T06:01:51.968Z,9.43
2019-05-12T06:04:19.096Z,9.00
2019-05-12T06:06:53.102Z,7.70
2019-05-12T06:09:19.930Z,10.30
2019-05-12T06:11:47.560Z,10.20
2019-05-12T06:14:16.206Z,7.97
2019-05-12T06:16:44.082Z,9.75
2019-05-12T06:19:13.927Z,9.35
2019-05-12T06:21:43.783Z,9.25
2019-05-12T06:24:15.652Z,8.90
2019-05-12T06:26:54.584Z,9.05
2019-05-12T06:29:20.329Z,7.05
2019-05-12T06:31:44.177Z,10.10
2019-05-12T06:34:15.483Z,10.48
2019-05-12T06:36:41.242Z,9.88
2019-05-12T06:39:10.493Z,7.92
2019-05-12T06:41:38.466Z,14.98
2019-05-12T06:44:08.891Z,7.50
2019-05-12T06:46:37.063Z,8.28
2019-05-12T06:49:12.665Z,10.20
2019-05-12T06:51:37.151Z,10.40
2019-05-12T06:54:07.307Z,8.33
2019-05-12T06:56:34.396Z,10.85
2019-05-12T06:59:09.881Z,8.70
2019-05-12T07:01:33.491Z,9.30
2019-05-12T07:04:06.747Z,6.72
2019-05-12T07:06:33.929Z,8.43
2019-05-12T07:09:09.645Z,9.30
2019-05-12T07:11:42.501Z,9.05
2019-05-12T07:14:07.779Z,8.60
2019-05-12T07:16:34.111Z,9.58
2019-05-12T07:19:07.555Z,9.70
2019-05-12T07:21:33.507Z,9.20
2019-05-12T07:24:06.737Z,10.43
2019-05-12T07:26:33.521Z,10.80
2019-05-12T07:29:00.945Z,9.73
2019-05-12T07:31:28.993Z,6.37
2019-05-12T07:33:56.671Z,11.22
2019-05-12T07:36:24.800Z,12.85
2019-05-12T07:38:55.918Z,9.78
2019-05-12T07:41:23.854Z,8.78
2019-05-12T07:43:59.058Z,10.95
2019-05-12T07:46:27.809Z,7.70
2019-05-12T07:48:54.356Z,10.43
2019-05-12T07:51:24.100Z,9.50
2019-05-12T07:53:57.553Z,9.55
2019-05-12T07:56:27.619Z,8.18
2019-05-12T07:58:56.554Z,8.83
2019-05-12T08:01:20.869Z,9.83
2019-05-12T08:04:23.933Z,13.22
2019-05-12T08:06:53.837Z,6.95
2019-05-12T08:09:24.028Z,7.60
2019-05-12T08:11:54.074Z,9.05
2019-05-12T08:14:28.563Z,7.95
2019-05-12T08:16:54.265Z,8.55
2019-05-12T08:19:25.470Z,9.03
2019-05-12T08:21:53.766Z,10.55
2019-05-12T08:24:24.359Z,8.53
2019-05-12T08:26:59.525Z,9.85
2019-05-12T08:29:24.628Z,11.33
2019-05-12T08:31:54.901Z,9.40
2019-05-12T08:34:23.850Z,6.40
2019-05-12T08:36:57.940Z,6.70
2019-05-12T08:39:25.357Z,9.65
2019-05-12T08:41:53.372Z,7.78
2019-05-12T08:44:24.940Z,6.90
2019-05-12T08:46:53.357Z,12.73
2019-05-12T08:49:23.355Z,6.37
2019-05-12T08:51:57.769Z,7.50
2019-05-12T08:54:20.171Z,9.10
2019-05-12T08:56:51.041Z,7.72
2019-05-12T08:59:18.510Z,7.97
2019-05-12T09:01:46.999Z,13.43
2019-05-12T09:04:18.065Z,6.40
2019-05-12T09:06:44.428Z,11.10
2019-05-12T09:09:14.000Z,6.90
2019-05-12T09:11:43.897Z,8.28
2019-05-12T09:14:11.371Z,5.75
2019-05-12T09:16:39.162Z,8.65
2019-05-12T09:19:10.185Z,5.83
2019-05-12T09:21:37.183Z,8.08
2019-05-12T09:24:05.166Z,7.28
2019-05-12T09:26:34.473Z,8.25
2019-05-12T09:29:03.461Z,8.83
2019-05-12T09:31:33.402Z,5.87
2019-05-12T09:34:11.327Z,5.40
2019-05-12T09:36:33.801Z,19.57
2019-05-12T09:39:03.013Z,7.62
2019-05-12T09:41:34.319Z,7.37
2019-05-12T09:44:01.761Z,5.45
2019-05-12T09:46:34.425Z,6.35
2019-05-12T09:49:00.375Z,6.08
2019-05-12T09:51:33.007Z,6.33
2019-05-12T09:53:57.747Z,7.47
2019-05-12T09:56:25.485Z,6.30
2019-05-12T09:59:01.310Z,8.80
2019-05-12T10:01:24.229Z,6.20
2019-05-12T10:03:54.307Z,7.08
2019-05-12T10:06:24.606Z,8.53
2019-05-12T10:08:54.838Z,6.42
2019-05-12T10:11:23.716Z,5.97
2019-05-12T10:13:54.088Z,4.83
2019-05-12T10:16:23.930Z,6.33
2019-05-12T10:18:52.621Z,7.10
2019-05-12T10:21:23.565Z,5.42
2019-05-12T10:24:00.292Z,6.03
2019-05-12T10:26:21.742Z,8.20
2019-05-12T10:28:52.466Z,8.18
2019-05-12T10:31:19.272Z,5.42
2019-05-12T10:33:49.079Z,5.65
2019-05-12T10:36:17.153Z,7.87
2019-05-12T10:38:44.832Z,7.97
2019-05-12T10:41:13.552Z,7.75
2019-05-12T10:43:43.258Z,5.50
2019-05-12T10:46:13.091Z,4.92
2019-05-12T10:48:40.661Z,4.90
2019-05-12T10:51:08.308Z,9.28
2019-05-12T10:53:36.195Z,6.30
2019-05-12T10:56:04.181Z,7.67
2019-05-12T10:58:33.602Z,5.95
2019-05-12T11:01:05.431Z,6.47
2019-05-12T11:03:35.463Z,4.15
2019-05-12T11:06:07.452Z,6.30
2019-05-12T11:08:33.285Z,7.53
2019-05-12T11:11:01.431Z,5.17
2019-05-12T11:13:29.117Z,9.20
2019-05-12T11:15:56.997Z,5.83
2019-05-12T11:18:30.261Z,4.85
2019-05-12T11:20:55.258Z,4.75
2019-05-12T11:23:24.512Z,5.20
2019-05-12T11:25:53.353Z,5.10
2019-05-12T11:28:21.257Z,8.05
2019-05-12T11:30:49.090Z,5.37
2019-05-12T11:33:16.868Z,4.65
2019-05-12T11:35:45.003Z,5.12
2019-05-12T11:38:13.417Z,5.20
2019-05-12T11:40:43.569Z,7.50
2019-05-12T11:43:11.138Z,5.60
2019-05-12T11:45:38.782Z,4.53
2019-05-12T11:48:10.069Z,5.80
2019-05-12T11:50:40.548Z,3.77
2019-05-12T11:53:06.029Z,7.45
2019-05-12T11:55:34.894Z,4.87
2019-05-12T11:58:09.198Z,5.80
2019-05-12T12:00:36.188Z,6.28
2019-05-12T12:03:12.714Z,6.80
2019-05-12T12:05:33.931Z,5.33
2019-05-12T12:08:04.060Z,4.53
2019-05-12T12:10:35.522Z,4.83
2019-05-12T12:13:03.513Z,4.35
2019-05-12T12:15:31.168Z,4.03
2019-05-12T12:18:04.030Z,7.70
2019-05-12T12:20:29.537Z,5.25
2019-05-12T12:23:00.085Z,6.25
2019-05-12T12:25:29.501Z,9.48
2019-05-12T12:27:57.220Z,3.65
2019-05-12T12:30:25.071Z,5.50
2019-05-12T12:32:58.699Z,6.70
2019-05-12T12:35:23.506Z,5.87
2019-05-12T12:37:53.953Z,2.75
2019-05-12T12:40:22.822Z,5.58
2019-05-12T12:42:53.806Z,3.92
2019-05-12T12:45:47.231Z,5.83
2019-05-12T12:48:19.260Z,2.70
2019-05-12T12:50:45.048Z,4.55
2019-05-12T12:53:12.838Z,3.92
2019-05-12T12:55:43.554Z,3.33
2019-05-12T12:58:10.289Z,3.85
2019-05-12T13:00:46.790Z,5.40
2019-05-12T13:03:07.712Z,5.08
2019-05-12T13:05:35.335Z,4.37
2019-05-12T13:08:04.235Z,5.05
2019-05-12T13:10:33.671Z,2.90
2019-05-12T13:13:04.150Z,3.80
2019-05-12T13:15:31.280Z,4.85
2019-05-12T13:17:59.547Z,2.90
2019-05-12T13:20:27.192Z,5.42
2019-05-12T13:22:54.869Z,5.00
2019-05-12T13:25:28.227Z,4.10
2019-05-12T13:27:55.995Z,5.67
2019-05-12T13:30:24.410Z,3.60
2019-05-12T13:32:52.345Z,2.67
2019-05-12T13:35:23.772Z,5.08
2019-05-12T13:37:56.484Z,5.08
2019-05-12T13:40:23.245Z,5.78
2019-05-12T13:42:50.772Z,3.37
2019-05-12T13:45:18.678Z,3.83
2019-05-12T13:47:47.710Z,4.12
2019-05-12T13:50:21.777Z,3.47
2019-05-12T13:52:45.323Z,3.80
2019-05-12T13:55:14.911Z,6.78
2019-05-12T13:57:52.327Z,3.02
2019-05-12T14:00:14.044Z,4.08
2019-05-12T14:02:43.959Z,3.45
2019-05-12T14:05:15.063Z,6.33
2019-05-12T14:07:43.528Z,3.15
2019-05-12T14:10:13.955Z,3.12
2019-05-12T14:12:43.994Z,6.00
2019-05-12T14:15:14.159Z,3.55
2019-05-12T14:17:43.686Z,4.37
2019-05-12T14:20:15.702Z,4.65
2019-05-12T14:22:44.789Z,4.75
2019-05-12T14:25:15.165Z,6.40
2019-05-12T14:27:44.315Z,2.52
2019-05-12T14:30:14.426Z,5.90
2019-05-12T14:32:43.775Z,5.62
2019-05-12T14:35:11.298Z,2.83
2019-05-12T14:37:40.445Z,5.47
2019-05-12T14:40:08.744Z,3.67
2019-05-12T14:42:39.775Z,5.05
2019-05-12T14:45:08.659Z,3.87
2019-05-12T14:47:39.041Z,5.58
2019-05-12T14:50:07.167Z,2.83
2019-05-12T14:52:35.139Z,2.35
2019-05-12T14:55:03.530Z,3.42
2019-05-12T14:57:37.282Z,2.83
2019-05-12T15:00:03.827Z,2.77
2019-05-12T15:02:33.025Z,3.02
2019-05-12T15:05:06.482Z,2.77
2019-05-12T15:07:31.677Z,3.20
2019-05-12T15:10:02.268Z,3.58
2019-05-12T15:12:29.153Z,3.65
2019-05-12T15:14:57.236Z,3.22
2019-05-12T15:17:25.027Z,7.22
2019-05-12T15:19:54.366Z,2.58
2019-05-12T15:22:24.477Z,4.30
2019-05-12T15:24:56.950Z,2.67
2019-05-12T15:27:39.263Z,3.72
2019-05-12T15:29:56.171Z,3.77
2019-05-12T15:32:23.525Z,3.12
2019-05-12T15:34:50.972Z,3.92
2019-05-12T15:37:18.675Z,12.95
2019-05-12T15:39:46.295Z,2.85
2019-05-12T15:42:15.120Z,3.15
2019-05-12T15:44:43.392Z,3.65
2019-05-12T15:47:11.308Z,3.72
2019-05-12T15:49:39.059Z,3.80
2019-05-12T15:52:06.813Z,3.92
2019-05-12T15:54:36.306Z,2.22
2019-05-12T15:57:06.215Z,4.47
2019-05-12T15:59:34.494Z,3.60
2019-05-12T16:02:12.404Z,3.22
2019-05-12T16:04:34.602Z,1.85
2019-05-12T16:07:03.948Z,3.85
2019-05-12T16:09:34.194Z,4.03
2019-05-12T16:12:09.436Z,4.10
2019-05-12T16:14:36.746Z,6.72
2019-05-12T16:17:05.852Z,3.25
2019-05-12T16:19:34.474Z,3.45
2019-05-12T16:22:03.757Z,3.83
2019-05-12T16:24:34.250Z,3.10
2019-05-12T16:27:03.628Z,1.70
2019-05-12T16:29:34.037Z,6.28
2019-05-12T16:32:04.531Z,3.77
2019-05-12T16:34:36.074Z,4.55
2019-05-12T16:37:04.065Z,3.62
2019-05-12T16:39:37.166Z,2.17
2019-05-12T16:42:06.222Z,2.27
2019-05-12T16:44:30.999Z,1.75
2019-05-12T16:47:04.146Z,2.85
2019-05-12T16:49:35.225Z,5.03
2019-05-12T16:52:03.511Z,3.50
2019-05-12T16:54:30.552Z,3.08
2019-05-12T16:57:00.198Z,7.37
2019-05-12T16:59:27.917Z,2.45
2019-05-12T17:01:59.271Z,4.58
2019-05-12T17:04:25.225Z,4.05
2019-05-12T17:06:54.212Z,3.75
2019-05-12T17:09:23.977Z,2.10
2019-05-12T17:11:55.463Z,2.05
2019-05-12T17:14:23.465Z,2.40
2019-05-12T17:16:51.400Z,3.62
2019-05-12T17:19:19.189Z,3.45
2019-05-12T17:21:49.480Z,4.45
2019-05-12T17:24:23.963Z,5.85
2019-05-12T17:26:51.978Z,3.80
2019-05-12T17:29:19.713Z,5.55
2019-05-12T17:31:48.908Z,2.33
2019-05-12T17:34:16.764Z,2.75
2019-05-12T17:36:44.943Z,3.05
2019-05-12T17:39:13.858Z,4.22
2019-05-12T17:41:45.411Z,1.17
2019-05-12T17:44:13.554Z,4.10
2019-05-12T17:46:43.908Z,2.62
2019-05-12T17:49:16.072Z,6.28
2019-05-12T17:51:40.787Z,2.30
2019-05-12T17:54:15.755Z,1.98
2019-05-12T17:56:46.813Z,2.25
2019-05-12T17:59:23.474Z,4.78
2019-05-12T18:01:45.327Z,4.65
2019-05-12T18:04:13.952Z,3.40
2019-05-12T18:06:44.154Z,1.85
2019-05-12T18:09:15.872Z,3.33
2019-05-12T18:11:46.066Z,2.52
2019-05-12T18:14:11.302Z,3.70
2019-05-12T18:16:39.218Z,2.50
2019-05-12T18:19:08.914Z,1.60
2019-05-12T18:21:36.572Z,3.60
2019-05-12T18:24:08.817Z,2.27
2019-05-12T18:26:34.097Z,3.52
2019-05-12T18:29:05.719Z,3.10
2019-05-12T18:31:33.553Z,2.40
2019-05-12T18:34:05.025Z,4.85
2019-05-12T18:36:34.168Z,3.40
2019-05-12T18:39:05.869Z,4.40
2019-05-12T18:41:33.672Z,2.22
2019-05-12T18:44:04.271Z,5.30
2019-05-12T18:46:36.275Z,4.00
2019-05-12T18:49:05.059Z,5.40
2019-05-12T18:51:30.795Z,2.27
2019-05-12T18:54:03.577Z,2.62
2019-05-12T18:56:30.729Z,8.18
2019-05-12T18:59:05.154Z,2.40
2019-05-12T19:01:28.237Z,2.50
2019-05-12T19:03:55.943Z,4.05
2019-05-12T19:06:23.872Z,4.20
2019-05-12T19:08:53.785Z,2.50
2019-05-12T19:11:23.621Z,1.98
2019-05-12T19:13:56.830Z,3.20
2019-05-12T19:16:23.644Z,2.87
2019-05-12T19:18:55.478Z,2.42
2019-05-12T19:21:20.793Z,1.32
2019-05-12T19:23:49.988Z,4.25
2019-05-12T19:26:17.838Z,3.08
2019-05-12T19:28:53.095Z,6.17
2019-05-12T19:31:15.631Z,4.20
2019-05-12T19:33:51.623Z,4.70
2019-05-12T19:36:13.645Z,3.50
2019-05-12T19:38:43.840Z,7.58
2019-05-12T19:41:13.980Z,4.33
2019-05-12T19:43:45.360Z,9.58
2019-05-12T19:46:13.627Z,4.40
2019-05-12T19:48:47.646Z,3.10
2019-05-12T19:51:22.031Z,2.52
2019-05-12T19:53:43.739Z,3.08
2019-05-12T19:56:14.059Z,3.02
2019-05-12T19:58:43.293Z,3.08
2019-05-12T20:01:11.143Z,4.17
2019-05-12T20:03:38.820Z,2.50
2019-05-12T20:06:06.897Z,3.85
2019-05-12T20:08:34.760Z,3.85
2019-05-12T20:11:03.768Z,2.67
2019-05-12T20:13:36.047Z,3.08
2019-05-12T20:16:01.665Z,2.47
2019-05-12T20:18:36.143Z,5.25
2019-05-12T20:20:59.046Z,2.65
2019-05-12T20:23:27.121Z,4.00
2019-05-12T20:25:54.938Z,2.72
2019-05-12T20:28:24.291Z,3.35
2019-05-12T20:31:01.043Z,3.67
2019-05-12T20:33:24.082Z,4.30
2019-05-12T20:35:54.469Z,2.90
2019-05-12T20:38:27.227Z,3.85
2019-05-12T20:40:53.796Z,4.58
2019-05-12T20:43:24.095Z,4.37
2019-05-12T20:45:51.008Z,2.92
2019-05-12T20:48:19.584Z,1.75
2019-05-12T20:50:48.465Z,2.72
2019-05-12T20:53:21.897Z,2.42
2019-05-12T20:55:46.902Z,4.87
2019-05-12T20:58:19.349Z,1.72
2019-05-12T21:00:50.085Z,3.90
2019-05-12T21:03:16.766Z,3.62
2019-05-12T21:05:50.566Z,4.30
2019-05-12T21:08:15.764Z,2.77
2019-05-12T21:10:43.896Z,3.25
2019-05-12T21:13:11.749Z,3.00
2019-05-12T21:15:45.129Z,2.20
2019-05-12T21:18:11.694Z,6.20
2019-05-12T21:20:39.697Z,4.12
2019-05-12T21:23:07.553Z,5.65
2019-05-12T21:25:35.322Z,3.40
2019-05-12T21:28:07.791Z,3.17
2019-05-12T21:30:33.882Z,2.87
2019-05-12T21:33:01.811Z,4.90
2019-05-12T21:35:31.809Z,2.30
2019-05-12T21:38:18.996Z,2.98
2019-05-12T21:40:44.476Z,2.98
2019-05-12T21:43:13.534Z,3.70
2019-05-12T21:45:43.500Z,3.72
2019-05-12T21:48:15.120Z,3.42
2019-05-12T21:50:41.460Z,3.58
2019-05-12T21:53:10.186Z,2.40
2019-05-12T21:55:39.348Z,4.08
2019-05-12T21:58:12.137Z,3.80
2019-05-12T22:00:44.804Z,2.47
2019-05-12T22:03:15.299Z,2.50
2019-05-12T22:05:53.041Z,3.45
2019-05-12T22:08:20.737Z,3.52
2019-05-12T22:10:43.867Z,4.97
2019-05-12T22:13:16.975Z,3.75
2019-05-12T22:15:41.528Z,4.20
2019-05-12T22:18:10.374Z,3.98
2019-05-12T22:20:38.279Z,3.30
2019-05-12T22:23:11.582Z,5.00
2019-05-12T22:25:35.963Z,2.77
2019-05-12T22:28:08.251Z,3.62
2019-05-12T22:30:34.894Z,2.45
2019-05-12T22:33:10.507Z,2.75
2019-05-12T22:35:35.422Z,6.53
2019-05-12T22:38:09.450Z,5.95
2019-05-12T22:40:33.345Z,3.37
2019-05-12T22:43:03.813Z,2.52
2019-05-12T22:45:37.797Z,3.60
2019-05-12T22:48:04.248Z,3.95
2019-05-12T22:50:32.950Z,4.92
2019-05-12T22:53:01.246Z,2.72
2019-05-12T22:55:32.501Z,3.35
2019-05-12T22:57:58.888Z,3.47
2019-05-12T23:00:26.527Z,4.12
2019-05-12T23:03:00.533Z,5.75
2019-05-12T23:05:25.184Z,3.65
2019-05-12T23:07:54.454Z,3.67
2019-05-12T23:10:22.437Z,3.33
2019-05-12T23:12:50.414Z,3.83
2019-05-12T23:15:20.166Z,4.47
2019-05-12T23:17:49.377Z,3.67
2019-05-12T23:20:17.740Z,6.25
2019-05-12T23:22:45.554Z,2.90
2019-05-12T23:25:19.596Z,3.98
2019-05-12T23:27:45.446Z,4.35
2019-05-12T23:30:15.815Z,3.92
2019-05-12T23:32:51.254Z,4.25
2019-05-12T23:35:14.420Z,4.53
2019-05-12T23:37:44.127Z,3.40
2019-05-12T23:40:16.417Z,6.05
2019-05-12T23:42:44.433Z,3.42
2019-05-12T23:45:11.233Z,3.62
2019-05-12T23:47:40.210Z,4.80
2019-05-12T23:50:08.198Z,5.80
2019-05-12T23:52:35.865Z,5.90
2019-05-12T23:55:06.131Z,4.95
2019-05-12T23:57:33.898Z,3.45
